Etusivu
METAR-TAF:

METAR-TAF

Lentoasemat :

Røros, Norja

Leveyspiiri: 62-35N, Pituuspiiri: 011-21E, korkeus merenpinnasta: 626 m

Tämänhetkinen sää

Tämä raportti tehtiin 10 minuuttia sitten, kello 04.50 UTC
Tuuli 2 kn eri suunnista
Lämpötila 4°C
Kosteus 87%
Ilmanpaine 1014 hPa
Näkyvyys 10 km tai enemmän
Hajonneita pilviä 2200 ft:n korkeudessa

METAR: ENRO 230450Z VRB02KT 9999 BKN022 04/02 Q1014

Aika: 07:00 (05:00 UTC)

Sääennuste

Tämä raportti tehtiin 3 tuntia ja 0 minuuttia sitten, kello 02.00 UTC
Ennuste voimassa 23. päivästä klo 05 UTC - 23. päivään klo 12 UTC
Tuuli 5 kn eri suunnista
Näkyvyys 10 km tai enemmän
Muutamia pilviä 1000 ft:n korkeudessa
Hajanaisia pilviä 2500 ft:n korkeudessa
Todennäköisyys 30% :
Ajoittain
23. päivästä klo 05 UTC - 23. päivään klo 07 UTC
Hajonneita pilviä 800 ft:n korkeudessa

TAF: ENRO 230200Z 2305/2312 VRB05KT 9999 FEW010 SCT025 PROB30 TEMPO 2305/2307 BKN008

Säähavainnot ja -ennusteet yli 4000 lentoasemalta (METAR- ja TAF-raportit).

Käytössä olevat sääasemat on merkitty karttaan keltaisilla ja punaisilla pisteillä.

Aseta hiiri pisteen päälle nähdäksesi sääaseman nimen.

Klikkaa sitten nähdäksesi säähavainnot ja -ennusteet.

Kartan vaihtaminen: klikkaa mustalla rastilla varustettuja vihreitä pisteitä, niin voit zoomata sisään; viivalla varustettua vihreää pistettä, niin voit zoomata ulos tai vihreitä nuolia, niin pääset viereisille kartoille.


METAR-TAF: